Aérodrome :
LOGIN :

S'inscrire | Disclaimer

   EN    FR    IT 

 










Légende :    VFR   VFR Marginal   IFR   IFR Intensif   IFR Très Intensif
Visi : 
Plafond : 
>= 8 km
>= 3000ft
5 à 8 km
1000 à 3000 ft
1500m à 5 km
500 à 1000 ft
800 à 1500m
200 à 500 ft
< 800m
< 200 ft
Symboles :   Orages  Brouillard  Fortes neiges  Fortes précipitations  Vent > 20 kt
SIGMETs :   Divers  Orages  Givrage  Turbulence  Onde Orograph.  Cendres Volcan.







- Altitude de l'aérodrome : 1568 ft


ETSB - Büchel AB

DERNIER METAR :
  • 201320Z 23008KT 9999 SCT020 BKN120 BKN240 08/02 Q1023 BLU BLU

METARs EXPIRÉS :
  • 201220Z 25009KT 9999 SCT010 BKN120 07/03 Q1023 BLU BLU
  • 201120Z 25008KT 8000 FEW002 BKN140 05/05 Q1024 BLU BLU
  • 201102Z 25007KT 5000 BR FEW001 SCT002 BKN140 04/04 Q1023 WHT WHT BECMG BLU
  • 201048Z 25007KT 2000 BR SCT001 BKN002 BKN140 03/03 Q1024 AMB AMB BECMG YLO
  • 201041Z 25007KT 1600 R21/0650U BR SCT000 BKN001 03/03 Q1024 RED RED BECMG AMB
  • 201036Z 25007KT 1200 R21/0450N BR BKN000 03/03 Q1024 RED RED BECMG AMB
  • 201020Z 25007KT 0300 R21/0450N FG BKN000 03/02 Q1023 RED RED BECMG AMB
  • 201033Z 25008KT 0600 R21/0450N FG BKN000 03/02 Q1024 RED RED BECMG AMB

TAF TAF ETSB
Valide du 20 à 12h jusqu'au 20 à 21h UTC


201108Z 2012/2021 25007KT 5000 BR SCT003 BKN140
BECMG 2012/2014 24008KT 9999 NSW BKN140 BY ETGL
Pas de NOTAMs connus pour ce terrain.



MET'MAP, la Météo Aéronautique d'un coup d'oeil ! - Copyright ORBIFLY Décembre 2007 - Disclaimer

ORBIFLY MET'MAP TEAM :

Programmation & Développement : Alexandra Zaïnal
Conception & Développement : Baudouin d'Aumeries
Co-Programmation & Développement : Marc-Olivier Méhu
Soutien technique & logistique : Manuel Goepfert

Contact : metmap@orbifly.com




SOURCES & CREDITS :

   NOAA